Flight Track Log - Related Links

Times and Time Zones

All times are in EDT time to prevent confusion due to time zone crossing. See the N28295 flight status page for this flight to view local times or setup timezone preferences in your user account.

Time Position Orientation Groundspeed Altitude Reporting Facility
EDT Latitude Longitude Course Direction KTS MPH feet Rate Location/Type
Mon 10:13:49 AM 43.2489 -75.4356 220° Southwest 90 104 1,100  Level Boston Center
Mon 10:14:20 AM 43.2392 -75.4558 237° Southwest 122 140 1,600 835 Climbing Boston Center
Mon 10:15:08 AM 43.2222 -75.4711 213° Southwest 96 110 2,200 800 Climbing Boston Center
Mon 10:15:20 AM 43.2164 -75.4781 221° Southwest 98 113 2,400 590 Climbing Boston Center
Mon 10:16:09 AM 43.2008 -75.4978 223° Southwest 101 116 2,800 537 Climbing Boston Center
Mon 10:16:27 AM 43.1958 -75.5128 245° Southwest 107 123 3,000 581 Climbing Boston Center
Mon 10:17:11 AM 43.1839 -75.5311 228° Southwest 103 119 3,400 545 Climbing Boston Center
Mon 10:19:00 AM 43.0571 -75.6056 220° Southwest  Level FlightAware Approximate
Mon 10:19:00 AM 43.1381 -75.5852 220° Southwest  Level Estimated
Mon 10:26:00 AM 42.9615 -75.7931 223° Southwest  Level Estimated
Mon 10:27:00 AM 42.9355 -75.8213 218° Southwest  Level FlightAware Approximate
Mon 10:28:00 AM 42.9094 -75.8496 218° Southwest  Level FlightAware Approximate
Mon 10:29:00 AM 42.8833 -75.8778 218° Southwest  Level FlightAware Approximate
Mon 10:30:00 AM 42.8572 -75.9060 218° Southwest  Level FlightAware Approximate
Mon 10:31:00 AM 42.8311 -75.9341 218° Southwest  Level FlightAware Approximate
Mon 10:32:00 AM 42.8050 -75.9623 218° Southwest  Level FlightAware Approximate
Mon 10:33:00 AM 42.7789 -75.9904 218° Southwest  Level FlightAware Approximate
Mon 10:34:00 AM 42.7528 -76.0185 218° Southwest  Level FlightAware Approximate
Mon 10:35:00 AM 42.7267 -76.0465 218° Southwest  Level FlightAware Approximate
Mon 10:36:00 AM 42.7005 -76.0746 218° Southwest  Level FlightAware Approximate
Mon 10:37:00 AM 42.6744 -76.1026 218° Southwest  Level FlightAware Approximate
Mon 10:38:00 AM 42.6483 -76.1306 218° Southwest  Level FlightAware Approximate
Mon 10:39:00 AM 42.6221 -76.1586 218° Southwest  Level FlightAware Approximate
Mon 10:40:00 AM 42.5960 -76.1865 218° Southwest  Level FlightAware Approximate
Mon 10:41:00 AM 42.5707 -76.2160 236° Southwest  Level Estimated
Mon 10:42:00 AM 42.5455 -76.2454 220° Southwest  Level Estimated
Mon 10:43:00 AM 42.5200 -76.2745 220° Southwest  Level FlightAware Approximate
Mon 10:44:00 AM 42.4946 -76.3036 220° Southwest  Level FlightAware Approximate
Mon 10:45:00 AM 42.4691 -76.3327 220° Southwest  Level FlightAware Approximate
Mon 10:46:00 AM 42.4437 -76.3617 220° Southwest  Level FlightAware Approximate
Mon 10:47:00 AM 42.4182 -76.3907 220° Southwest  Level FlightAware Approximate
Mon 10:48:00 AM 42.3928 -76.4197 220° Southwest  Level FlightAware Approximate
Mon 10:49:00 AM 42.3673 -76.4487 220° Southwest  Level FlightAware Approximate
Mon 10:50:00 AM 42.3418 -76.4777 220° Southwest  Level FlightAware Approximate
Mon 10:51:00 AM 42.3163 -76.5066 220° Southwest  Level FlightAware Approximate
Mon 10:52:00 AM 42.2908 -76.5355 220° Southwest  Level FlightAware Approximate
Mon 10:53:00 AM 42.2653 -76.5644 220° Southwest  Level FlightAware Approximate
Mon 10:54:00 AM 42.2398 -76.5932 220° Southwest  Level FlightAware Approximate
Mon 10:55:00 AM 42.2143 -76.6221 220° Southwest  Level FlightAware Approximate
Mon 10:56:00 AM 42.1887 -76.6509 220° Southwest  Level FlightAware Approximate
Mon 10:57:00 AM 42.1632 -76.6797 220° Southwest  Level FlightAware Approximate
Mon 10:58:00 AM 42.1377 -76.7085 220° Southwest  Level FlightAware Approximate
Mon 10:59:00 AM 42.1121 -76.7372 220° Southwest  Level FlightAware Approximate
Mon 11:00:00 AM 42.0866 -76.7659 220° Southwest  Level FlightAware Approximate
Mon 11:01:00 AM 42.0610 -76.7946 220° Southwest  Level FlightAware Approximate
Mon 11:02:00 AM 42.0354 -76.8233 220° Southwest  Level FlightAware Approximate
Mon 11:03:00 AM 42.0098 -76.8519 220° Southwest  Level FlightAware Approximate
Mon 11:04:00 AM 41.9843 -76.8806 220° Southwest  Level FlightAware Approximate
Mon 11:05:00 AM 41.9587 -76.9092 220° Southwest  Level FlightAware Approximate
Mon 11:06:00 AM 41.9331 -76.9378 220° Southwest  Level FlightAware Approximate
Mon 11:07:00 AM 41.9075 -76.9663 220° Southwest  Level FlightAware Approximate
Mon 11:08:00 AM 41.8819 -76.9949 220° Southwest  Level FlightAware Approximate
Mon 11:09:00 AM 41.8562 -77.0234 220° Southwest  Level FlightAware Approximate
Mon 11:10:00 AM 41.8306 -77.0518 220° Southwest  Level FlightAware Approximate
Mon 11:11:00 AM 41.8050 -77.0803 220° Southwest  Level FlightAware Approximate
Mon 11:12:00 AM 41.7793 -77.1088 220° Southwest  Level FlightAware Approximate
Mon 11:13:00 AM 41.7537 -77.1372 220° Southwest  Level FlightAware Approximate
Mon 11:14:00 AM 41.7280 -77.1656 220° Southwest  Level FlightAware Approximate
Mon 11:15:00 AM 41.7024 -77.1940 220° Southwest  Level FlightAware Approximate
Mon 11:16:00 AM 41.6767 -77.2223 220° Southwest  Level FlightAware Approximate
Mon 11:17:00 AM 41.6510 -77.2506 220° Southwest  Level FlightAware Approximate
Mon 11:18:00 AM 41.6253 -77.2790 219° Southwest  Level FlightAware Approximate
Mon 11:19:00 AM 41.5996 -77.3072 219° Southwest  Level FlightAware Approximate
Mon 11:20:00 AM 41.5739 -77.3355 219° Southwest  Level FlightAware Approximate
Mon 11:21:00 AM 41.5482 -77.3637 219° Southwest  Level FlightAware Approximate
Mon 11:22:00 AM 41.5225 -77.3920 219° Southwest  Level FlightAware Approximate
Mon 11:23:00 AM 41.4971 -77.4206 219° Southwest  Level Estimated
Mon 11:24:00 AM 41.4714 -77.4488 219° Southwest  Level FlightAware Approximate
Mon 11:25:00 AM 41.4456 -77.4769 219° Southwest  Level FlightAware Approximate
Mon 11:26:00 AM 41.4198 -77.5050 219° Southwest  Level FlightAware Approximate
Mon 11:27:00 AM 41.3941 -77.5330 219° Southwest  Level FlightAware Approximate
Mon 11:28:00 AM 41.3683 -77.5611 219° Southwest  Level FlightAware Approximate
Mon 11:29:00 AM 41.3425 -77.5891 219° Southwest  Level FlightAware Approximate
Mon 11:30:00 AM 41.3167 -77.6171 219° Southwest  Level FlightAware Approximate
Mon 11:31:00 AM 41.2909 -77.6451 219° Southwest  Level FlightAware Approximate
Mon 11:32:00 AM 41.2651 -77.6730 219° Southwest  Level FlightAware Approximate
Mon 11:33:00 AM 41.2393 -77.7010 219° Southwest  Level FlightAware Approximate
Mon 11:34:00 AM 41.2135 -77.7289 219° Southwest  Level FlightAware Approximate
Mon 11:35:00 AM 41.1877 -77.7568 219° Southwest  Level FlightAware Approximate
Mon 11:36:00 AM 41.1618 -77.7847 219° Southwest  Level FlightAware Approximate
Mon 11:37:00 AM 41.1360 -77.8125 219° Southwest  Level FlightAware Approximate
Mon 11:38:00 AM 41.1102 -77.8403 219° Southwest  Level FlightAware Approximate
Mon 11:39:00 AM 41.0843 -77.8681 219° Southwest  Level FlightAware Approximate
Mon 11:40:00 AM 41.0584 -77.8959 219° Southwest  Level FlightAware Approximate
Mon 11:41:00 AM 41.0326 -77.9237 219° Southwest  Level FlightAware Approximate
Mon 11:42:00 AM 41.0067 -77.9514 219° Southwest  Level FlightAware Approximate
Mon 11:43:00 AM 40.9809 -77.9791 219° Southwest  Level FlightAware Approximate
Mon 11:44:00 AM 40.9550 -78.0068 219° Southwest  Level FlightAware Approximate
Mon 11:45:00 AM 40.9291 -78.0345 219° Southwest  Level FlightAware Approximate
Mon 11:46:00 AM 40.9032 -78.0622 219° Southwest  Level FlightAware Approximate
Mon 11:47:00 AM 40.8778 -78.0906 219° Southwest  Level Estimated
Mon 11:48:00 AM 40.8519 -78.1182 219° Southwest  Level FlightAware Approximate
Mon 11:49:00 AM 40.8260 -78.1458 219° Southwest  Level FlightAware Approximate
Mon 11:50:00 AM 40.8000 -78.1734 219° Southwest  Level FlightAware Approximate
Mon 11:51:00 AM 40.7741 -78.2009 219° Southwest  Level FlightAware Approximate
Mon 11:52:00 AM 40.7482 -78.2285 219° Southwest  Level FlightAware Approximate
Mon 11:53:00 AM 40.7222 -78.2560 219° Southwest  Level FlightAware Approximate
Mon 11:54:00 AM 40.6963 -78.2834 219° Southwest  Level FlightAware Approximate
Mon 11:55:00 AM 40.6703 -78.3109 219° Southwest  Level FlightAware Approximate
Mon 11:56:00 AM 40.6444 -78.3383 219° Southwest  Level FlightAware Approximate
Mon 11:57:00 AM 40.6191 -78.3669 219° Southwest  Level Estimated
Mon 11:58:00 AM 40.5932 -78.3944 219° Southwest  Level FlightAware Approximate
Mon 11:59:00 AM 40.5673 -78.4218 219° Southwest  Level FlightAware Approximate
Mon 12:00:00 PM 40.5413 -78.4493 219° Southwest  Level FlightAware Approximate
Mon 12:01:00 PM 40.5154 -78.4767 219° Southwest  Level FlightAware Approximate
Mon 12:02:00 PM 40.4894 -78.5041 219° Southwest  Level FlightAware Approximate
Mon 12:03:00 PM 40.4635 -78.5315 219° Southwest  Level FlightAware Approximate
Mon 12:04:00 PM 40.4375 -78.5588 219° Southwest  Level FlightAware Approximate
Mon 12:05:00 PM 40.4116 -78.5861 219° Southwest  Level FlightAware Approximate
Mon 12:06:00 PM 40.3856 -78.6134 219° Southwest  Level FlightAware Approximate
Mon 12:07:00 PM 40.3607 -78.6425 221° Southwest  Level Estimated
Mon 12:08:00 PM 40.3354 -78.6708 221° Southwest  Level FlightAware Approximate
Mon 12:09:00 PM 40.3101 -78.6992 220° Southwest  Level FlightAware Approximate
Mon 12:10:00 PM 40.2848 -78.7275 220° Southwest  Level FlightAware Approximate
Mon 12:11:00 PM 40.2595 -78.7558 220° Southwest  Level FlightAware Approximate
Mon 12:12:00 PM 40.2341 -78.7840 220° Southwest  Level FlightAware Approximate
Mon 12:13:00 PM 40.2088 -78.8123 220° Southwest  Level FlightAware Approximate
Mon 12:14:00 PM 40.1835 -78.8405 220° Southwest  Level FlightAware Approximate
Mon 12:15:00 PM 40.1581 -78.8688 220° Southwest  Level FlightAware Approximate
Mon 12:16:00 PM 40.1328 -78.8969 220° Southwest  Level FlightAware Approximate
Mon 12:17:00 PM 40.1074 -78.9251 220° Southwest  Level FlightAware Approximate
Mon 12:18:00 PM 40.0839 -78.9559 217° Southwest  Level Estimated
Mon 12:19:00 PM 40.0562 -78.9801 214° Southwest  Level FlightAware Approximate
Mon 12:20:00 PM 40.0333 -79.0000 217° Southwest  Level FlightAware Approximate
Mon 12:21:00 PM 40.0389 -79.0150 North  Level Estimated
Mon 12:22:00 PM 40.0389 -79.0150 116° Southeast  Level Estimated
Mon 12:23:00 PM 40.0389 -79.0150 217° Southwest  Level Estimated
Mon 12:24:00 PM 40.0389 -79.0150 116° Southeast  Level Estimated
Mon 12:25:00 PM 40.0389 -79.0150 116° Southeast  Level Estimated
Mon 12:26:00 PM 40.0389 -79.0150 217° Southwest  Level Estimated
Mon 12:27:00 PM 40.0389 -79.0150 116° Southeast  Level Estimated
Mon 12:28:00 PM 40.0389 -79.0150 116° Southeast  Level Estimated
Mon 12:29:00 PM 40.0389 -79.0150 217° Southwest  Level Estimated
Mon 12:30:00 PM 40.0389 -79.0150 116° Southeast  Level Estimated
Mon 12:31:00 PM 40.0389 -79.0150 116° Southeast  Level Estimated
Mon 12:32:00 PM 40.0389 -79.0150 217° Southwest  Level Estimated
Mon 12:33:00 PM 40.0389 -79.0150 116° Southeast  Level Estimated
Mon 12:34:00 PM 40.0389 -79.0150 116° Southeast  Level Estimated

Login

Don't have an account? Register now (free) for customized features, flight alerts, and more!